• Join FlightAware (Why Join?)
  • Login
  • US Flag 
02:52AM EST


 

Airport Tracker/Info


-or-


 

Live Flight TrackerFlight Track Log ✈ EJA982 ✈ 01-Oct-2013 ✈ KLUK - KAVL

Flight Track Log - Related Links

Times and Time Zones

All times are in EDT time to prevent confusion due to time zone crossing. See the EJA982 flight status page for this flight to view local times or setup timezone preferences in your user account.

Time Position Orientation Groundspeed Altitude Reporting Facility
EDT Latitude Longitude Course Direction KTS MPH feet Rate Location/Type
01:18PM 39.0833 -84.4167 201° Southwest 153 176 1,400  Level Cincinnati TRACON
01:19PM 39.0167 -84.4500 201° Southwest 198 228 2,600 2,417 Climbing Cincinnati TRACON
01:21PM 38.9500 -84.4833 201° Southwest 249 287 7,200 3,857 Climbing Cincinnati TRACON
01:22PM 38.8833 -84.5167 201° Southwest 282 325 10,700 1,900 Climbing Cincinnati TRACON
01:23PM 38.7833 -84.5500 195° South 425 489 11,000 484 Climbing Cincinnati TRACON
01:24PM 38.6853 -84.5511 181° South 405 466 11,700 1,350 Climbing Indianapolis Center
01:25PM 38.5631 -84.5033 163° South 419 482 13,700 2,565 Climbing Indianapolis Center
01:26PM 38.4528 -84.4628 164° South 411 473 17,000 2,952 Climbing Indianapolis Center
01:27PM 38.3461 -84.4631 180° South 387 445 19,800 2,371 Climbing Indianapolis Center
01:28PM 38.2211 -84.4661 181° South 384 442 21,900 1,935 Climbing Indianapolis Center
01:29PM 38.1089 -84.4694 181° South 397 457 23,800 1,500 Climbing Indianapolis Center
01:30PM 37.9964 -84.4306 165° South 425 489 25,000 581 Climbing Indianapolis Center
01:31PM 37.8889 -84.3464 148° Southeast 450 518 25,000  Level Indianapolis Center
01:32PM 37.7708 -84.2553 149° Southeast 488 562 25,000  Level Indianapolis Center
01:33PM 37.6306 -84.1481 149° Southeast 502 578 25,000  Level Indianapolis Center
01:34PM 37.5111 -84.0583 149° Southeast 501 577 25,000  Level Indianapolis Center
01:35PM 37.3931 -83.9694 149° Southeast 495 570 25,000  Level Indianapolis Center
01:36PM 37.2761 -83.8811 149° Southeast 492 566 25,000  Level Indianapolis Center
01:37PM 37.1597 -83.7953 150° Southeast 487 560 25,000 -435 Level Indianapolis Center
01:38PM 37.0436 -83.7089 149° Southeast 487 560 24,100 -871 Descending Indianapolis Center
01:39PM 36.9036 -83.6050 149° Southeast 497 572 23,200 -532 Descending Indianapolis Center
01:40PM 36.7850 -83.5169 149° Southeast 499 574 23,000 -98 Descending Indianapolis Center
01:41PM 36.6678 -83.4325 150° Southeast 494 568 23,000  Level Indianapolis Center
01:42PM 36.5542 -83.3481 149° Southeast 484 557 23,000 -48 Level Indianapolis Center
01:43PM 36.4217 -83.2508 149° Southeast 476 548 22,900 -774 Descending Indianapolis Center
01:44PM 36.3050 -83.1650 149° Southeast 485 558 21,400 -1,500 Descending Indianapolis Center
01:45PM 36.1839 -83.0867 152° Southeast 491 565 19,800 -1,800 Descending Indianapolis Center
01:46PM 36.0333 -83.0347 164° South 474 545 17,500 -2,344 Descending Atlanta Center
01:47PM 35.9119 -82.9900 163° South 459 528 14,800 -3,100 Descending Atlanta Center
01:48PM 35.8008 -82.9403 160° South 439 505 11,300 -2,050 Descending Atlanta Center
01:49PM 35.7208 -82.8597 141° Southeast 393 452 10,700 -1,100 Descending Atlanta Center
01:50PM 35.6597 -82.7864 136° Southeast 332 382 9,100 -1,350 Descending Atlanta Center
01:51PM 35.5986 -82.7208 139° Southeast 297 342 8,000 -1,400 Descending Atlanta Center
01:52PM 35.5414 -82.6553 137° Southeast 287 330 6,300 1,500 Descending Atlanta Center
01:53PM 35.4886 -82.6003 140° Southeast 281 323 11,000 2,350 Climbing Atlanta Center
01:54PM 35.4317 -82.5375 138° Southeast 281 323 11,000  Level Atlanta Center
01:55PM 35.3725 -82.4750 139° Southeast 281 323 11,000  Level Atlanta Center
01:56PM 35.3492 -82.4497 139° Southeast 281 323 11,000  Level Atlanta Center
01:58PM 35.4333 -82.5333 321° Northwest  Level FlightAware Approximate
02:05PM 35.4362 -82.5418 321° Northwest  Level Estimated
02:06PM 35.4362 -82.5418 321° Northwest  Level Estimated